createdAt,value
2022-07-29T00:00:21.990Z,16.90
2022-07-29T00:03:10.614Z,16.90
2022-07-29T00:05:58.862Z,16.90
2022-07-29T00:08:49.124Z,16.80
2022-07-29T00:11:37.409Z,16.90
2022-07-29T00:14:27.258Z,16.90
2022-07-29T00:17:15.489Z,16.90
2022-07-29T00:20:08.722Z,16.80
2022-07-29T00:22:56.906Z,16.80
2022-07-29T00:25:45.051Z,16.70
2022-07-29T00:28:33.296Z,16.70
2022-07-29T00:31:22.865Z,16.60
2022-07-29T00:34:31.098Z,16.60
2022-07-29T00:37:18.320Z,16.70
2022-07-29T00:40:07.705Z,16.60
2022-07-29T00:42:56.087Z,16.60
2022-07-29T00:45:44.568Z,16.50
2022-07-29T00:48:34.257Z,16.50
2022-07-29T00:51:22.490Z,16.40
2022-07-29T00:54:10.822Z,16.50
2022-07-29T00:57:00.506Z,16.40
2022-07-29T00:59:48.679Z,16.30
2022-07-29T01:02:37.131Z,16.20
2022-07-29T01:05:50.160Z,16.20
2022-07-29T01:08:38.854Z,16.20
2022-07-29T01:11:27.510Z,16.20
2022-07-29T01:14:17.074Z,16.30
2022-07-29T01:17:12.593Z,16.20
2022-07-29T01:20:06.996Z,16.20
2022-07-29T01:23:18.581Z,16.20
2022-07-29T01:26:28.376Z,16.20
2022-07-29T01:29:20.865Z,16.20
2022-07-29T01:32:27.584Z,16.20
2022-07-29T01:35:22.487Z,16.20
2022-07-29T01:38:14.579Z,16.20
2022-07-29T01:41:08.845Z,16.20
2022-07-29T01:43:59.954Z,16.10
2022-07-29T01:46:54.834Z,16.10
2022-07-29T01:49:51.039Z,16.10
2022-07-29T01:52:44.557Z,16.20
2022-07-29T01:55:36.968Z,16.20
2022-07-29T01:58:26.631Z,16.20
2022-07-29T02:01:15.575Z,16.20
2022-07-29T02:04:08.203Z,16.10
2022-07-29T02:07:00.725Z,16.10
2022-07-29T02:09:51.220Z,16.00
2022-07-29T02:12:40.927Z,15.90
2022-07-29T02:15:32.503Z,16.00
2022-07-29T02:18:25.044Z,16.10
2022-07-29T02:21:19.152Z,16.00
2022-07-29T02:24:08.172Z,15.80
2022-07-29T02:26:59.745Z,15.70
2022-07-29T02:29:50.092Z,15.60
2022-07-29T02:32:41.822Z,15.60
2022-07-29T02:35:34.641Z,15.50
2022-07-29T02:38:43.632Z,15.40
2022-07-29T02:41:37.311Z,15.40
2022-07-29T02:44:32.654Z,15.40
2022-07-29T02:47:26.152Z,15.40
2022-07-29T02:50:18.910Z,15.40
2022-07-29T02:53:11.364Z,15.40
2022-07-29T02:56:03.753Z,15.40
2022-07-29T02:58:56.624Z,15.40
2022-07-29T03:01:45.769Z,15.40
2022-07-29T03:04:36.142Z,15.40
2022-07-29T03:07:25.432Z,15.40
2022-07-29T03:10:14.558Z,15.40
2022-07-29T03:13:04.386Z,15.40
2022-07-29T03:15:52.974Z,15.50
2022-07-29T03:18:41.564Z,15.50
2022-07-29T03:21:29.809Z,15.50
2022-07-29T03:24:32.425Z,15.50
2022-07-29T03:27:20.795Z,15.60
2022-07-29T03:30:12.006Z,15.60
2022-07-29T03:33:13.554Z,15.60
2022-07-29T03:36:03.355Z,15.70
2022-07-29T03:38:52.055Z,15.70
2022-07-29T03:41:42.651Z,15.70
2022-07-29T03:44:32.735Z,15.70
2022-07-29T03:47:43.555Z,15.70
2022-07-29T03:50:37.114Z,15.70
2022-07-29T03:53:25.477Z,15.80
2022-07-29T03:56:18.920Z,15.80
2022-07-29T03:59:08.305Z,15.80
2022-07-29T04:01:59.068Z,15.90
2022-07-29T04:04:49.026Z,15.90
2022-07-29T04:07:37.234Z,16.00
2022-07-29T04:10:30.143Z,16.00
2022-07-29T04:13:20.432Z,16.00
2022-07-29T04:16:08.669Z,15.90
2022-07-29T04:18:56.988Z,15.90
2022-07-29T04:21:47.129Z,15.90
2022-07-29T04:24:35.291Z,15.90
2022-07-29T04:27:23.505Z,15.90
2022-07-29T04:30:11.896Z,15.90
2022-07-29T04:33:01.758Z,15.90
2022-07-29T04:35:52.456Z,15.80
2022-07-29T04:38:44.621Z,15.80
2022-07-29T04:41:33.837Z,15.80
2022-07-29T04:44:22.975Z,15.90
2022-07-29T04:47:17.127Z,16.00
2022-07-29T04:50:06.272Z,16.10
2022-07-29T04:52:54.448Z,16.20
2022-07-29T04:55:44.004Z,16.30
2022-07-29T04:58:32.172Z,16.30
2022-07-29T05:01:20.797Z,16.40
2022-07-29T05:04:09.088Z,16.50
2022-07-29T05:06:57.268Z,16.60
2022-07-29T05:09:45.477Z,16.60
2022-07-29T05:12:34.968Z,16.70
2022-07-29T05:15:23.198Z,16.80
2022-07-29T05:18:11.410Z,16.90
2022-07-29T05:20:59.683Z,17.00
2022-07-29T05:23:47.870Z,17.00
2022-07-29T05:26:36.141Z,17.10
2022-07-29T05:29:44.344Z,17.20
2022-07-29T05:32:33.773Z,17.20
2022-07-29T05:35:22.113Z,17.30
2022-07-29T05:38:10.317Z,17.30
2022-07-29T05:40:59.629Z,17.40
2022-07-29T05:43:47.852Z,17.40
2022-07-29T05:46:37.434Z,17.60
2022-07-29T05:49:27.453Z,17.60
2022-07-29T05:52:15.985Z,17.70
2022-07-29T05:55:06.542Z,17.70
2022-07-29T05:57:54.787Z,17.80
2022-07-29T06:00:43.078Z,17.90
2022-07-29T06:03:32.593Z,17.90
2022-07-29T06:06:20.792Z,17.90
2022-07-29T06:09:12.212Z,18.00
2022-07-29T06:12:01.001Z,18.10
2022-07-29T06:14:53.950Z,18.20
2022-07-29T06:18:00.825Z,18.30
2022-07-29T06:20:50.993Z,18.30
2022-07-29T06:23:39.589Z,18.40
2022-07-29T06:26:31.312Z,18.50
2022-07-29T06:29:20.825Z,18.60
2022-07-29T06:32:10.132Z,18.70
2022-07-29T06:35:24.530Z,18.80
2022-07-29T06:38:13.784Z,18.90
2022-07-29T06:41:17.028Z,19.00
2022-07-29T06:44:06.347Z,19.10
2022-07-29T06:46:55.759Z,19.10
2022-07-29T06:49:43.954Z,19.10
2022-07-29T06:52:32.200Z,19.10
2022-07-29T06:55:25.060Z,19.20
2022-07-29T06:58:15.165Z,19.30
2022-07-29T07:01:05.536Z,19.30
2022-07-29T07:03:53.780Z,19.30
2022-07-29T07:06:42.043Z,19.30
2022-07-29T07:09:40.040Z,19.30
2022-07-29T07:12:30.460Z,19.30
2022-07-29T07:15:22.700Z,19.30
2022-07-29T07:18:27.070Z,19.40
2022-07-29T07:21:19.238Z,19.50
2022-07-29T07:24:08.847Z,19.70
2022-07-29T07:26:57.042Z,19.70
2022-07-29T07:29:46.567Z,19.70
2022-07-29T07:32:35.259Z,19.70
2022-07-29T07:35:23.828Z,19.70
2022-07-29T07:38:12.174Z,19.60
2022-07-29T07:41:00.682Z,19.60
2022-07-29T07:43:49.030Z,19.60
2022-07-29T07:46:38.724Z,19.70
2022-07-29T07:49:27.841Z,19.80
2022-07-29T07:52:16.560Z,19.90
2022-07-29T07:55:05.040Z,20.10
2022-07-29T07:57:53.299Z,20.10
2022-07-29T08:00:41.571Z,20.10
2022-07-29T08:03:31.182Z,20.10
2022-07-29T08:06:19.532Z,20.10
2022-07-29T08:09:27.706Z,20.20
2022-07-29T08:12:16.105Z,20.20
2022-07-29T08:15:04.622Z,20.30
2022-07-29T08:17:57.357Z,20.40
2022-07-29T08:20:51.648Z,20.50
2022-07-29T08:23:46.001Z,20.70
2022-07-29T08:26:36.958Z,20.80
2022-07-29T08:29:25.146Z,20.80
2022-07-29T08:32:13.395Z,20.90
2022-07-29T08:35:05.295Z,21.00
2022-07-29T08:37:55.799Z,21.10
2022-07-29T08:40:44.108Z,21.20
2022-07-29T08:43:33.131Z,21.20
2022-07-29T08:46:22.412Z,21.20
2022-07-29T08:49:10.665Z,21.20
2022-07-29T08:52:00.548Z,21.30
2022-07-29T08:54:50.580Z,21.40
2022-07-29T08:57:48.778Z,21.40
2022-07-29T09:00:45.218Z,21.60
2022-07-29T09:03:36.277Z,21.70
2022-07-29T09:06:27.614Z,21.70
2022-07-29T09:09:16.292Z,21.80
2022-07-29T09:12:07.324Z,21.80
2022-07-29T09:14:55.513Z,21.80
2022-07-29T09:17:45.199Z,21.90
2022-07-29T09:20:47.509Z,22.00
2022-07-29T09:23:35.668Z,22.10
2022-07-29T09:26:30.229Z,22.20
2022-07-29T09:29:21.520Z,22.20
2022-07-29T09:32:11.791Z,22.30
2022-07-29T09:35:23.515Z,22.50
2022-07-29T09:38:15.260Z,22.60
2022-07-29T09:41:06.066Z,22.60
2022-07-29T09:43:59.013Z,22.70
2022-07-29T09:46:59.861Z,22.90
2022-07-29T09:49:58.817Z,23.10
2022-07-29T09:52:48.981Z,23.30
2022-07-29T09:55:49.218Z,23.50
2022-07-29T09:58:37.403Z,23.60
2022-07-29T10:01:30.030Z,23.80
2022-07-29T10:04:20.262Z,24.00
2022-07-29T10:07:08.823Z,24.10
2022-07-29T10:09:59.177Z,24.30
2022-07-29T10:12:55.895Z,24.50
2022-07-29T10:15:46.841Z,24.70
2022-07-29T10:18:36.455Z,24.90
2022-07-29T10:21:36.093Z,25.10
2022-07-29T10:24:26.590Z,25.30
2022-07-29T10:27:14.752Z,25.50
2022-07-29T10:30:05.444Z,25.70
2022-07-29T10:33:23.539Z,25.80
2022-07-29T10:36:34.640Z,26.00
2022-07-29T10:39:44.343Z,26.30
2022-07-29T10:42:34.540Z,26.60
2022-07-29T10:45:24.852Z,26.70
2022-07-29T10:48:13.865Z,26.90
2022-07-29T10:51:05.150Z,27.10
2022-07-29T10:53:57.025Z,27.40
2022-07-29T10:56:46.159Z,27.50
2022-07-29T10:59:36.237Z,27.70
2022-07-29T11:02:49.389Z,27.90
2022-07-29T11:05:55.420Z,28.00
2022-07-29T11:08:43.901Z,28.10
2022-07-29T11:11:47.713Z,28.30
2022-07-29T11:15:00.109Z,28.40
2022-07-29T11:18:07.920Z,28.60
2022-07-29T11:21:03.704Z,28.80
2022-07-29T11:23:51.906Z,29.10
2022-07-29T11:26:41.748Z,29.30
2022-07-29T11:29:30.363Z,29.50
2022-07-29T11:32:23.165Z,29.80
2022-07-29T11:35:38.326Z,29.90
2022-07-29T11:41:40.079Z,29.90
2022-07-29T11:44:57.191Z,30.10
2022-07-29T11:47:52.634Z,30.50
2022-07-29T11:50:44.523Z,30.70
2022-07-29T11:53:33.821Z,30.90
2022-07-29T11:56:25.580Z,31.00
2022-07-29T11:59:15.283Z,31.20
2022-07-29T12:02:36.532Z,31.10
2022-07-29T12:05:14.471Z,30.80
2022-07-29T12:07:01.814Z,30.00
2022-07-29T12:08:12.612Z,30.70
2022-07-29T12:11:03.216Z,30.60
2022-07-29T12:13:52.844Z,30.70
2022-07-29T12:16:41.088Z,30.90
2022-07-29T12:19:31.451Z,31.00
2022-07-29T12:22:26.364Z,31.10
2022-07-29T12:25:33.143Z,31.00
2022-07-29T12:28:27.079Z,31.20
2022-07-29T12:31:43.256Z,31.40
2022-07-29T12:34:28.589Z,31.70
2022-07-29T12:37:18.615Z,31.90
2022-07-29T12:40:08.304Z,31.80
2022-07-29T12:43:18.688Z,31.60
2022-07-29T12:46:15.688Z,31.50
2022-07-29T12:49:04.521Z,31.40
2022-07-29T12:51:52.790Z,31.30
2022-07-29T12:54:50.071Z,31.40
2022-07-29T12:57:47.668Z,31.40
2022-07-29T13:00:36.328Z,31.30
2022-07-29T13:03:24.602Z,31.20
2022-07-29T13:06:32.024Z,31.20
2022-07-29T13:09:23.419Z,31.30
2022-07-29T13:12:15.183Z,31.40
2022-07-29T13:15:14.057Z,31.80
2022-07-29T13:18:04.819Z,32.00
2022-07-29T13:20:53.212Z,32.50
2022-07-29T13:23:41.897Z,32.80
2022-07-29T13:26:30.073Z,32.90
2022-07-29T13:29:19.600Z,32.90
2022-07-29T13:32:10.429Z,33.00
2022-07-29T13:35:01.157Z,32.80
2022-07-29T13:37:53.553Z,32.70
2022-07-29T13:40:42.600Z,32.60
2022-07-29T13:43:30.773Z,32.60
2022-07-29T13:46:20.419Z,32.70
2022-07-29T13:49:08.728Z,33.00
2022-07-29T13:51:57.197Z,32.90
2022-07-29T13:54:46.026Z,32.80
2022-07-29T13:57:34.424Z,33.00
2022-07-29T14:00:24.541Z,33.30
2022-07-29T14:03:14.279Z,33.60
2022-07-29T14:06:02.456Z,33.20
2022-07-29T14:08:50.649Z,32.70
2022-07-29T14:11:39.575Z,32.40
2022-07-29T14:14:27.874Z,32.30
2022-07-29T14:17:16.140Z,32.30
2022-07-29T14:20:06.891Z,32.30
2022-07-29T14:22:55.106Z,32.30
2022-07-29T14:25:43.318Z,32.30
2022-07-29T14:28:32.828Z,32.20
2022-07-29T14:31:21.131Z,31.90
2022-07-29T14:34:09.391Z,31.70
2022-07-29T14:36:58.910Z,31.60
2022-07-29T14:39:47.097Z,31.50
2022-07-29T14:42:35.318Z,31.30
2022-07-29T14:45:23.634Z,31.30
2022-07-29T14:48:12.395Z,31.30
2022-07-29T14:51:04.557Z,31.10
2022-07-29T14:53:54.520Z,31.10
2022-07-29T14:56:46.588Z,31.10
2022-07-29T14:59:35.289Z,31.00
2022-07-29T15:02:31.499Z,31.10
2022-07-29T15:05:28.454Z,31.10
2022-07-29T15:08:16.668Z,31.10
2022-07-29T15:11:06.202Z,31.10
2022-07-29T15:13:54.406Z,31.20
2022-07-29T15:16:48.177Z,31.30
2022-07-29T15:19:36.641Z,31.40
2022-07-29T15:22:24.799Z,31.50
2022-07-29T15:25:13.315Z,32.00
2022-07-29T15:28:03.939Z,32.40
2022-07-29T15:30:52.132Z,32.80
2022-07-29T15:33:40.532Z,32.80
2022-07-29T15:36:50.711Z,32.70
2022-07-29T15:39:36.972Z,33.10
2022-07-29T15:42:25.167Z,33.40
2022-07-29T15:45:14.706Z,34.20
2022-07-29T15:48:03.591Z,35.20
2022-07-29T15:50:52.337Z,36.00
2022-07-29T15:53:40.548Z,36.00
2022-07-29T15:56:28.799Z,36.10
2022-07-29T15:59:22.464Z,36.60
2022-07-29T16:02:12.268Z,37.30
2022-07-29T16:05:00.334Z,37.10
2022-07-29T16:07:48.513Z,36.20
2022-07-29T16:10:36.705Z,35.70
2022-07-29T16:13:24.931Z,35.50
2022-07-29T16:16:13.426Z,35.40
2022-07-29T16:19:02.952Z,35.70
2022-07-29T16:21:51.191Z,36.30
2022-07-29T16:24:40.319Z,37.00
2022-07-29T16:27:35.335Z,37.80
2022-07-29T16:30:26.266Z,38.10
2022-07-29T16:33:14.431Z,38.20
2022-07-29T16:36:04.647Z,38.50
2022-07-29T16:38:52.904Z,38.80
2022-07-29T16:41:41.068Z,39.10
2022-07-29T16:44:29.365Z,39.30
2022-07-29T16:47:17.995Z,38.30
2022-07-29T16:50:08.371Z,37.20
2022-07-29T16:52:57.971Z,36.40
2022-07-29T16:55:46.330Z,36.30
2022-07-29T16:58:34.553Z,36.80
2022-07-29T17:01:22.841Z,36.80
2022-07-29T17:04:12.007Z,37.10
2022-07-29T17:07:01.086Z,36.90
2022-07-29T17:09:55.362Z,36.80
2022-07-29T17:12:44.233Z,36.80
2022-07-29T17:15:32.487Z,36.60
2022-07-29T17:18:24.625Z,35.80
2022-07-29T17:21:13.501Z,35.60
2022-07-29T17:24:01.681Z,35.90
2022-07-29T17:26:51.349Z,36.30
2022-07-29T17:29:39.750Z,36.10
2022-07-29T17:32:27.973Z,35.70
2022-07-29T17:35:45.035Z,35.20
2022-07-29T17:38:33.274Z,34.40
2022-07-29T17:41:21.967Z,33.50
2022-07-29T17:44:11.741Z,32.90
2022-07-29T17:47:00.442Z,32.40
2022-07-29T17:49:48.963Z,31.90
2022-07-29T17:52:37.702Z,31.60
2022-07-29T17:55:25.913Z,31.20
2022-07-29T17:58:14.083Z,31.00
2022-07-29T18:01:03.702Z,30.80
2022-07-29T18:03:51.966Z,30.50
2022-07-29T18:06:41.120Z,30.40
2022-07-29T18:09:29.901Z,30.10
2022-07-29T18:12:18.082Z,30.00
2022-07-29T18:15:07.191Z,29.80
2022-07-29T18:17:57.945Z,29.70
2022-07-29T18:20:46.920Z,29.60
2022-07-29T18:23:35.922Z,29.40
2022-07-29T18:26:24.154Z,29.20
2022-07-29T18:29:19.005Z,29.10
2022-07-29T18:32:08.139Z,28.90
2022-07-29T18:34:57.755Z,28.80
2022-07-29T18:38:01.010Z,28.60
2022-07-29T18:40:51.054Z,28.40
2022-07-29T18:43:39.224Z,28.40
2022-07-29T18:46:27.502Z,28.30
2022-07-29T18:49:15.930Z,28.10
2022-07-29T18:52:06.216Z,28.00
2022-07-29T18:54:54.600Z,27.90
2022-07-29T18:57:54.334Z,27.90
2022-07-29T19:00:44.622Z,27.80
2022-07-29T19:03:32.990Z,27.70
2022-07-29T19:06:25.367Z,27.70
2022-07-29T19:09:16.225Z,27.60
2022-07-29T19:12:04.739Z,27.50
2022-07-29T19:14:52.935Z,27.50
2022-07-29T19:17:41.123Z,27.40
2022-07-29T19:20:29.653Z,27.30
2022-07-29T19:23:18.474Z,27.20
2022-07-29T19:26:08.449Z,27.10
2022-07-29T19:28:56.656Z,27.10
2022-07-29T19:31:45.160Z,27.00
2022-07-29T19:34:33.373Z,27.00
2022-07-29T19:37:21.567Z,26.90
2022-07-29T19:40:12.119Z,26.80
2022-07-29T19:43:01.618Z,26.80
2022-07-29T19:45:49.844Z,26.80
2022-07-29T19:48:38.202Z,26.70
2022-07-29T19:51:26.983Z,26.60
2022-07-29T19:54:15.592Z,26.60
2022-07-29T19:57:03.910Z,26.50
2022-07-29T19:59:53.528Z,26.50
2022-07-29T20:02:42.878Z,26.40
2022-07-29T20:05:31.599Z,26.40
2022-07-29T20:08:19.934Z,26.30
2022-07-29T20:11:08.107Z,26.20
2022-07-29T20:13:56.388Z,26.20
2022-07-29T20:16:46.033Z,26.20
2022-07-29T20:19:34.609Z,26.10
2022-07-29T20:22:22.773Z,26.10
2022-07-29T20:25:11.981Z,26.00
2022-07-29T20:28:00.174Z,26.00
2022-07-29T20:30:48.411Z,25.90
2022-07-29T20:33:38.743Z,25.90
2022-07-29T20:36:27.467Z,25.80
2022-07-29T20:39:16.021Z,25.80
2022-07-29T20:42:04.427Z,25.70
2022-07-29T20:44:53.875Z,25.70
2022-07-29T20:47:42.179Z,25.70
2022-07-29T20:50:31.684Z,25.70
2022-07-29T20:53:20.467Z,25.60
2022-07-29T20:56:08.824Z,25.60
2022-07-29T20:58:57.016Z,25.60
2022-07-29T21:01:45.251Z,25.50
2022-07-29T21:04:33.471Z,25.40
2022-07-29T21:07:22.953Z,25.40
2022-07-29T21:10:11.540Z,25.30
2022-07-29T21:12:59.666Z,25.30
2022-07-29T21:15:49.838Z,25.20
2022-07-29T21:18:38.328Z,25.20
2022-07-29T21:21:26.848Z,25.20
2022-07-29T21:24:16.345Z,25.10
2022-07-29T21:27:22.184Z,25.10
2022-07-29T21:30:11.317Z,25.10
2022-07-29T21:33:00.061Z,25.00
2022-07-29T21:38:57.048Z,24.90
2022-07-29T21:41:46.540Z,24.90
2022-07-29T21:44:37.512Z,24.90
2022-07-29T21:47:25.694Z,24.90
2022-07-29T21:50:13.897Z,24.80
2022-07-29T21:53:02.227Z,24.80
2022-07-29T21:55:54.264Z,24.70
2022-07-29T21:58:45.067Z,24.70
2022-07-29T22:01:39.029Z,24.70
2022-07-29T22:04:27.659Z,24.60
2022-07-29T22:07:15.882Z,24.60
2022-07-29T22:10:04.799Z,24.50
2022-07-29T22:12:53.424Z,24.50
2022-07-29T22:15:46.960Z,24.40
2022-07-29T22:18:35.425Z,24.40
2022-07-29T22:21:23.601Z,24.40
2022-07-29T22:24:12.013Z,24.40
2022-07-29T22:27:00.483Z,24.30
2022-07-29T22:29:48.953Z,24.30
2022-07-29T22:32:38.558Z,24.30
2022-07-29T22:35:26.916Z,24.20
2022-07-29T22:38:15.134Z,24.20
2022-07-29T22:41:03.509Z,24.20
2022-07-29T22:43:51.733Z,24.20
2022-07-29T22:46:40.004Z,24.10
2022-07-29T22:49:29.600Z,24.10
2022-07-29T22:52:17.798Z,24.10
2022-07-29T22:55:06.769Z,24.00
2022-07-29T22:57:55.118Z,23.90
2022-07-29T23:00:43.284Z,23.90
2022-07-29T23:03:31.868Z,23.90
2022-07-29T23:06:21.692Z,23.80
2022-07-29T23:09:09.867Z,23.80
2022-07-29T23:11:58.032Z,23.80
2022-07-29T23:14:46.345Z,23.80
2022-07-29T23:17:36.360Z,23.80
2022-07-29T23:20:25.026Z,23.70
2022-07-29T23:23:14.631Z,23.70
2022-07-29T23:26:02.812Z,23.60
2022-07-29T23:28:50.981Z,23.60
2022-07-29T23:31:41.688Z,23.50
2022-07-29T23:34:30.786Z,23.40
2022-07-29T23:37:18.955Z,23.30
2022-07-29T23:40:14.214Z,23.40
2022-07-29T23:43:02.962Z,23.30
2022-07-29T23:45:58.084Z,23.20
2022-07-29T23:48:46.575Z,23.20
2022-07-29T23:51:34.776Z,23.10
2022-07-29T23:54:22.981Z,23.20
2022-07-29T23:57:12.489Z,23.10
